Time;durP1;ratioP1;P1;durP2;ratioP2;P2;SDS_P1;SDS_P2;PMS_P1;PMS_P2;Temp;Humidity;BMP_temperature;BMP_pressure;BME280_temperature;BME280_humidity;BME280_pressure;Samples;Min_cycle;Max_cycle;Signal;HPM_P1;HPM_P2
2022/05/23 00:01:49;;;;;;;9.07;2.72;;;14.30;99.90;;;;;;5075353;28;20083;-77
2022/05/23 00:04:14;;;;;;;7.13;2.47;;;14.30;99.90;;;;;;5075316;28;20044;-76
2022/05/23 00:06:40;;;;;;;7.93;2.53;;;14.30;99.90;;;;;;5074878;28;20349;-77
2022/05/23 00:09:06;;;;;;;6.00;2.47;;;14.20;99.90;;;;;;5057918;28;20040;-79
2022/05/23 00:11:32;;;;;;;6.70;2.40;;;14.20;99.90;;;;;;5075208;28;20490;-76
2022/05/23 00:13:58;;;;;;;4.78;2.83;;;14.10;99.90;;;;;;5075079;28;20044;-75
2022/05/23 00:16:27;;;;;;;5.65;2.55;;;14.10;99.90;;;;;;5075034;28;20055;-76
2022/05/23 00:18:53;;;;;;;4.75;2.40;;;14.00;99.90;;;;;;5054245;28;20037;-76
2022/05/23 00:21:19;;;;;;;7.05;2.75;;;14.00;99.90;;;;;;5075127;28;20048;-77
2022/05/23 00:23:46;;;;;;;4.95;2.20;;;13.90;99.90;;;;;;5075017;28;20051;-76
2022/05/23 00:26:16;;;;;;;5.10;2.65;;;13.90;99.90;;;;;;5074418;28;20454;-76
2022/05/23 00:28:42;;;;;;;6.00;2.30;;;13.90;99.90;;;;;;5074827;28;20045;-75
2022/05/23 00:31:08;;;;;;;8.75;3.03;;;13.90;99.90;;;;;;5074797;28;20604;-77
2022/05/23 00:36:19;;;;;;;4.68;2.40;;;13.90;99.90;;;;;;5074471;28;20055;-75
2022/05/23 00:38:46;;;;;;;4.28;2.38;;;13.90;99.90;;;;;;5074587;28;20040;-76
2022/05/23 00:44:31;;;;;;;3.72;2.08;;;14.00;99.90;;;;;;5068304;28;20056;-76
2022/05/23 00:47:02;;;;;;;;;;;14.00;99.90;;;;;;5057523;28;20520;-76
2022/05/23 00:49:29;;;;;;;;;;;14.00;99.90;;;;;;5056234;28;19924;-77
2022/05/23 00:51:58;;;;;;;7.80;2.65;;;14.00;99.90;;;;;;5056950;28;19916;-78
2022/05/23 00:54:29;;;;;;;6.72;2.33;;;14.00;99.90;;;;;;5074422;28;20442;-78
2022/05/23 00:56:55;;;;;;;5.15;2.50;;;14.00;99.90;;;;;;5074418;28;20056;-76
2022/05/23 00:59:27;;;;;;;5.95;2.30;;;14.10;99.90;;;;;;5074216;28;20049;-76
2022/05/23 01:01:54;;;;;;;6.30;2.80;;;14.10;99.90;;;;;;5074299;28;20041;-77
2022/05/23 01:04:19;;;;;;;6.22;3.00;;;14.10;99.90;;;;;;5056684;28;20409;-76
2022/05/23 01:06:45;;;;;;;5.07;2.35;;;14.10;99.90;;;;;;5073900;28;20040;-77
2022/05/23 01:09:12;;;;;;;6.20;3.00;;;14.10;99.90;;;;;;5074024;28;20063;-77
2022/05/23 01:11:39;;;;;;;6.32;2.17;;;14.10;99.90;;;;;;5056616;28;20052;-78
2022/05/23 01:14:05;;;;;;;9.32;2.38;;;14.10;99.90;;;;;;5056669;28;20036;-77
2022/05/23 01:16:31;;;;;;;5.40;2.13;;;14.20;99.90;;;;;;5056433;28;20473;-78
2022/05/23 01:18:58;;;;;;;5.07;2.10;;;14.20;99.90;;;;;;5073941;28;20044;-76
2022/05/23 01:21:38;;;;;;;9.43;2.60;;;14.20;99.90;;;;;;5073953;28;20040;-77
2022/05/23 01:24:30;;;;;;;4.72;2.40;;;14.20;99.90;;;;;;5073811;28;20091;-77
2022/05/23 01:26:57;;;;;;;5.72;2.42;;;14.20;99.90;;;;;;5073252;28;20369;-78
2022/05/23 01:29:23;;;;;;;5.55;2.05;;;14.20;99.90;;;;;;5073879;28;20087;-78
2022/05/23 01:31:49;;;;;;;6.22;3.10;;;14.20;99.90;;;;;;5073565;28;20090;-75
2022/05/23 01:34:15;;;;;;;6.53;2.70;;;14.20;99.90;;;;;;5073719;28;20040;-78
2022/05/23 01:36:41;;;;;;;3.58;2.00;;;14.20;99.90;;;;;;5073555;28;20342;-78
2022/05/23 01:39:07;;;;;;;5.18;2.00;;;14.20;99.90;;;;;;5073402;28;20053;-77
2022/05/23 01:41:32;;;;;;;7.30;2.38;;;14.20;99.90;;;;;;5073524;28;20110;-75
2022/05/23 01:43:58;;;;;;;5.72;2.45;;;14.20;99.90;;;;;;5073528;28;20394;-78
2022/05/23 01:46:24;;;;;;;4.80;2.22;;;14.30;99.90;;;;;;5073436;28;20087;-77
2022/05/23 01:48:50;;;;;;;7.45;2.80;;;14.30;99.90;;;;;;5073210;28;20059;-78
2022/05/23 01:51:16;;;;;;;6.28;3.00;;;14.30;99.90;;;;;;5073221;28;20322;-77
2022/05/23 01:53:42;;;;;;;4.32;2.30;;;14.30;99.90;;;;;;5073224;28;20061;-77
2022/05/23 01:56:08;;;;;;;4.93;2.60;;;14.30;99.90;;;;;;5064893;28;20092;-75
2022/05/23 02:01:19;;;;;;;5.63;2.40;;;14.30;99.90;;;;;;5072759;28;20465;-76
2022/05/23 02:03:47;;;;;;;6.95;2.90;;;14.30;99.90;;;;;;5073233;28;20087;-78
2022/05/23 02:06:13;;;;;;;4.47;2.70;;;14.20;99.90;;;;;;5072657;28;20403;-78
2022/05/23 02:08:39;;;;;;;6.18;2.47;;;14.20;99.90;;;;;;5052534;28;20040;-78
2022/05/23 02:11:06;;;;;;;5.07;2.30;;;14.20;99.90;;;;;;5055514;28;20338;-76
2022/05/23 02:13:34;;;;;;;3.90;2.08;;;14.20;99.90;;;;;;5055302;28;20044;-75
2022/05/23 02:16:00;;;;;;;6.15;2.20;;;14.20;99.90;;;;;;5072799;28;20422;-76
2022/05/23 02:18:27;;;;;;;4.95;2.25;;;14.10;99.90;;;;;;5072584;28;20327;-77
2022/05/23 02:20:53;;;;;;;4.38;2.33;;;14.10;99.90;;;;;;5072822;28;20044;-77
2022/05/23 02:23:19;;;;;;;4.88;2.42;;;14.10;99.90;;;;;;5055216;28;20047;-76
2022/05/23 02:25:45;;;;;;;5.22;2.25;;;14.10;99.90;;;;;;5072622;28;20449;-77
2022/05/23 02:28:12;;;;;;;7.10;3.00;;;14.00;99.90;;;;;;5072428;28;20052;-75
2022/05/23 02:30:38;;;;;;;5.45;2.33;;;14.00;99.90;;;;;;5055278;28;20047;-78
2022/05/23 02:33:04;;;;;;;6.78;2.47;;;13.90;99.90;;;;;;5055001;28;20051;-76
2022/05/23 02:35:30;;;;;;;8.35;2.80;;;13.90;99.90;;;;;;5072573;28;20044;-77
2022/05/23 02:37:56;;;;;;;8.27;2.53;;;13.90;99.90;;;;;;5054971;28;20045;-75
2022/05/23 02:40:23;;;;;;;6.05;2.38;;;13.80;99.90;;;;;;5072636;28;20167;-76
2022/05/23 02:42:49;;;;;;;9.63;2.55;;;13.70;99.90;;;;;;5068952;28;20127;-76
2022/05/23 02:45:15;;;;;;;4.78;2.53;;;13.70;99.90;;;;;;5054957;28;20510;-76
2022/05/23 02:47:40;;;;;;;7.63;2.58;;;13.60;99.90;;;;;;5072288;28;20048;-75
2022/05/23 02:50:08;;;;;;;5.00;2.20;;;13.50;99.90;;;;;;5054958;28;20049;-75
2022/05/23 02:52:34;;;;;;;4.72;2.33;;;13.50;99.90;;;;;;5072411;28;20091;-77
2022/05/23 02:55:00;;;;;;;3.95;2.20;;;13.40;99.90;;;;;;5072440;28;20076;-77
2022/05/23 02:57:26;;;;;;;5.25;2.90;;;13.40;99.90;;;;;;5072200;28;20092;-77
2022/05/23 02:59:52;;;;;;;4.88;2.40;;;13.30;99.90;;;;;;5054602;28;20525;-77
2022/05/23 03:05:02;;;;;;;4.50;2.40;;;13.20;99.90;;;;;;5054564;28;20102;-77
2022/05/23 03:07:28;;;;;;;5.57;2.72;;;13.20;99.90;;;;;;5072331;28;20040;-76
2022/05/23 03:09:54;;;;;;;6.43;2.90;;;13.20;99.90;;;;;;5072362;28;20040;-77
2022/05/23 03:12:19;;;;;;;6.35;2.65;;;13.10;99.90;;;;;;5055648;28;20051;-77
2022/05/23 03:14:45;;;;;;;9.07;2.35;;;13.10;99.90;;;;;;5058807;28;20048;-77
2022/05/23 03:17:11;;;;;;;4.43;2.55;;;13.10;99.90;;;;;;5075836;28;20078;-76
2022/05/23 03:19:38;;;;;;;5.65;2.47;;;13.10;99.90;;;;;;5076086;28;20054;-76
2022/05/23 03:27:38;;;;;;;4.88;2.40;;;13.10;99.90;;;;;;5075791;28;20175;-77
2022/05/23 03:30:06;;;;;;;4.90;2.60;;;13.10;99.90;;;;;;5058654;28;20478;-76
2022/05/23 03:32:32;;;;;;;5.53;3.05;;;13.10;99.90;;;;;;5058526;28;20040;-78
2022/05/23 03:34:58;;;;;;;3.53;2.53;;;13.10;99.90;;;;;;5055583;28;20062;-78
2022/05/23 03:37:24;;;;;;;6.88;2.70;;;13.10;99.90;;;;;;5075859;28;20044;-76
2022/05/23 03:39:50;;;;;;;4.90;2.42;;;13.10;99.90;;;;;;5058090;28;20505;-76
2022/05/23 03:42:17;;;;;;;5.38;2.78;;;13.10;99.90;;;;;;5075613;28;20128;-76
2022/05/23 03:44:43;;;;;;;5.55;2.72;;;13.00;99.90;;;;;;5075832;28;20029;-76
2022/05/23 03:47:09;;;;;;;8.45;2.92;;;13.00;99.90;;;;;;5075799;28;20489;-75
2022/05/23 03:49:35;;;;;;;6.75;2.90;;;13.00;99.90;;;;;;5072436;28;20040;-75
2022/05/23 03:52:01;;;;;;;8.73;3.22;;;13.00;99.90;;;;;;5075454;28;20327;-76
2022/05/23 03:54:27;;;;;;;3.88;2.60;;;12.90;99.90;;;;;;5058074;28;20508;-78
2022/05/23 03:57:01;;;;;;;7.00;3.40;;;13.00;99.90;;;;;;5075399;28;20123;-76
2022/05/23 03:59:27;;;;;;;6.72;2.97;;;13.00;99.90;;;;;;5075314;28;20060;-77
2022/05/23 04:01:56;;;;;;;5.03;2.88;;;13.00;99.90;;;;;;5075579;28;20350;-77
2022/05/23 04:04:26;;;;;;;5.22;3.00;;;12.90;99.90;;;;;;5075329;28;20039;-75
2022/05/23 04:06:52;;;;;;;4.22;2.65;;;12.90;99.90;;;;;;5057905;28;20048;-77
2022/05/23 04:09:18;;;;;;;4.15;2.90;;;12.90;99.90;;;;;;5075153;28;20335;-76
2022/05/23 04:11:45;;;;;;;4.75;3.03;;;12.90;99.90;;;;;;5075311;28;20043;-76
2022/05/23 04:14:10;;;;;;;7.85;3.13;;;12.90;99.90;;;;;;5057802;28;20445;-77
2022/05/23 04:16:36;;;;;;;6.03;3.33;;;12.80;99.90;;;;;;5057285;28;20119;-74
2022/05/23 04:19:06;;;;;;;7.45;3.38;;;12.80;99.90;;;;;;5057286;28;20048;-74
2022/05/23 04:21:32;;;;;;;4.85;2.75;;;12.80;99.90;;;;;;5075142;28;20353;-76
2022/05/23 04:23:58;;;;;;;9.00;3.17;;;12.80;99.90;;;;;;5057005;28;20072;-76
2022/05/23 04:26:24;;;;;;;5.90;2.80;;;12.80;99.90;;;;;;5057147;28;20122;-77
2022/05/23 04:28:50;;;;;;;4.40;2.75;;;12.80;99.90;;;;;;5074867;28;20044;-76
2022/05/23 04:31:15;;;;;;;6.40;3.75;;;12.80;99.90;;;;;;5057265;28;20044;-75
2022/05/23 04:36:26;;;;;;;5.20;2.97;;;12.90;99.90;;;;;;5057202;28;20140;-76
2022/05/23 04:38:51;;;;;;;6.78;3.05;;;12.90;99.90;;;;;;5074670;28;20048;-76
2022/05/23 04:41:17;;;;;;;5.00;2.80;;;12.90;99.90;;;;;;5071569;28;20049;-75
2022/05/23 04:43:43;;;;;;;4.13;2.67;;;12.90;99.90;;;;;;5074721;28;20437;-76
2022/05/23 04:46:09;;;;;;;4.68;3.00;;;12.90;99.90;;;;;;5074730;28;20040;-76
2022/05/23 04:51:19;;;;;;;7.35;2.83;;;13.00;99.90;;;;;;5074342;28;20114;-76
2022/05/23 04:53:45;;;;;;;6.05;2.90;;;13.10;99.90;;;;;;5056842;28;20358;-76
2022/05/23 04:56:11;;;;;;;5.13;3.28;;;13.20;99.90;;;;;;5074556;28;20045;-76
2022/05/23 04:58:36;;;;;;;7.10;3.08;;;13.20;99.90;;;;;;5056414;28;20478;-76
2022/05/23 05:01:03;;;;;;;9.95;3.40;;;13.30;99.90;;;;;;5074391;28;20197;-76
2022/05/23 05:03:28;;;;;;;5.38;3.08;;;13.30;99.90;;;;;;5074114;28;20055;-75
2022/05/23 05:05:54;;;;;;;4.35;3.35;;;13.30;99.90;;;;;;5074312;28;20040;-75
2022/05/23 05:08:20;;;;;;;5.30;3.47;;;13.30;99.90;;;;;;5074160;28;20052;-76
2022/05/23 05:10:46;;;;;;;8.02;3.30;;;13.40;99.90;;;;;;5071356;28;20083;-78
2022/05/23 05:13:12;;;;;;;6.25;3.80;;;13.40;99.90;;;;;;5074153;28;20076;-77
2022/05/23 05:15:38;;;;;;;6.47;2.97;;;13.50;99.90;;;;;;5073996;28;20485;-77
2022/05/23 05:18:05;;;;;;;5.18;3.00;;;13.60;99.90;;;;;;5056633;28;20052;-76
2022/05/23 05:20:31;;;;;;;5.18;3.10;;;13.70;99.90;;;;;;5073855;28;20051;-76
2022/05/23 05:22:57;;;;;;;6.55;3.50;;;13.70;99.90;;;;;;5056521;28;20048;-76
2022/05/23 05:25:22;;;;;;;6.32;3.38;;;13.80;99.90;;;;;;5073928;28;20721;-76
2022/05/23 05:27:48;;;;;;;7.72;3.38;;;13.90;99.90;;;;;;5056278;28;20355;-77
2022/05/23 05:30:19;;;;;;;7.63;3.40;;;14.10;99.90;;;;;;5036337;28;20111;-76
2022/05/23 05:32:58;;;;;;;6.68;3.40;;;14.20;99.90;;;;;;5036421;28;20115;-78
2022/05/23 05:35:40;;;;;;;5.93;3.25;;;14.20;99.90;;;;;;5035624;28;20055;-77
2022/05/23 05:38:10;;;;;;;6.13;3.30;;;14.30;99.90;;;;;;5053392;28;20059;-76
2022/05/23 05:40:37;;;;;;;8.05;3.15;;;14.50;99.90;;;;;;5035964;28;20045;-77
2022/05/23 05:43:15;;;;;;;4.68;3.25;;;14.60;99.90;;;;;;5053632;28;20378;-76
2022/05/23 05:45:47;;;;;;;5.63;3.40;;;14.60;99.90;;;;;;5036043;28;20055;-76
2022/05/23 05:48:13;;;;;;;7.15;3.60;;;14.70;99.90;;;;;;5053601;28;20044;-75
2022/05/23 05:50:41;;;;;;;10.70;4.22;;;14.80;99.90;;;;;;5053384;28;20107;-77
2022/05/23 05:53:11;;;;;;;10.13;3.92;;;14.90;99.90;;;;;;5053242;28;20052;-76
2022/05/23 05:55:40;;;;;;;7.68;3.35;;;15.00;99.90;;;;;;5035904;28;20327;-77
2022/05/23 05:58:06;;;;;;;8.32;3.45;;;15.10;99.90;;;;;;5053207;28;20128;-76
2022/05/23 06:00:31;;;;;;;7.57;3.75;;;15.20;99.90;;;;;;5029268;28;20136;-76
2022/05/23 06:02:57;;;;;;;7.18;3.38;;;15.40;99.90;;;;;;5049988;28;20041;-76
2022/05/23 06:05:23;;;;;;;5.30;3.40;;;15.50;99.90;;;;;;5052845;28;20044;-77
2022/05/23 06:13:18;;;;;;;6.60;3.42;;;16.00;99.90;;;;;;5053093;28;20111;-78
2022/05/23 06:15:45;;;;;;;8.57;4.13;;;16.00;99.90;;;;;;5034756;28;20048;-76
2022/05/23 06:18:11;;;;;;;5.68;3.55;;;16.00;99.90;;;;;;5052702;28;20079;-78
2022/05/23 06:20:38;;;;;;;6.15;3.92;;;16.00;99.90;;;;;;5052744;28;20041;-78
2022/05/23 06:23:04;;;;;;;6.32;4.07;;;16.10;99.90;;;;;;5035286;28;20454;-76
2022/05/23 06:25:30;;;;;;;7.85;4.32;;;16.20;99.90;;;;;;5035286;28;20045;-77
2022/05/23 06:27:56;;;;;;;7.78;4.50;;;16.30;99.90;;;;;;5070587;28;20048;-77
2022/05/23 06:30:24;;;;;;;6.63;4.07;;;16.30;99.90;;;;;;5072502;28;20143;-77
2022/05/23 06:32:50;;;;;;;7.03;4.40;;;16.40;99.90;;;;;;5055074;28;20040;-78
2022/05/23 06:35:17;;;;;;;6.00;4.00;;;16.50;99.90;;;;;;5072706;28;20048;-78
2022/05/23 06:37:43;;;;;;;6.05;3.55;;;16.50;99.90;;;;;;5075896;28;20461;-76
2022/05/23 06:40:12;;;;;;;8.13;4.40;;;16.50;99.90;;;;;;5072486;28;20060;-76
2022/05/23 06:42:38;;;;;;;7.75;3.80;;;16.50;99.90;;;;;;5072529;28;20110;-77
2022/05/23 06:45:06;;;;;;;4.50;3.45;;;16.50;99.90;;;;;;5073148;28;20047;-76
2022/05/23 06:47:32;;;;;;;5.80;4.03;;;16.60;99.90;;;;;;5074262;28;20056;-74
2022/05/23 06:49:58;;;;;;;6.22;4.18;;;16.60;99.90;;;;;;5056944;28;20055;-77
2022/05/23 06:52:24;;;;;;;7.40;4.22;;;16.70;99.90;;;;;;5074024;28;20044;-76
2022/05/23 06:54:50;;;;;;;5.70;4.03;;;16.80;99.90;;;;;;5074313;28;20066;-77
2022/05/23 06:57:16;;;;;;;6.55;3.85;;;17.00;99.90;;;;;;5074484;28;20051;-76
2022/05/23 06:59:43;;;;;;;5.32;3.67;;;17.10;99.90;;;;;;5073084;28;20099;-76
2022/05/23 07:02:10;;;;;;;7.97;4.50;;;17.30;99.90;;;;;;5055648;28;20048;-75
2022/05/23 07:12:52;;;;;;;7.43;4.38;;;17.40;99.90;;;;;;5093458;28;20349;-76
2022/05/23 07:15:18;;;;;;;5.18;3.92;;;17.50;99.90;;;;;;5089438;28;20040;-77
2022/05/23 07:17:45;;;;;;;8.60;4.30;;;17.60;99.90;;;;;;5072424;28;20339;-77
2022/05/23 07:20:11;;;;;;;6.30;3.90;;;17.70;99.90;;;;;;5055425;28;20044;-76
2022/05/23 07:22:37;;;;;;;5.53;4.00;;;17.70;99.90;;;;;;5072416;28;20040;-78
2022/05/23 07:25:03;;;;;;;10.93;4.28;;;17.80;99.90;;;;;;5054575;28;20056;-76
2022/05/23 07:27:30;;;;;;;5.80;4.15;;;17.80;99.90;;;;;;5072341;28;20423;-75
2022/05/23 07:29:56;;;;;;;8.98;4.45;;;17.80;99.90;;;;;;5072472;28;20059;-75
2022/05/23 07:32:21;;;;;;;8.63;4.55;;;18.00;99.90;;;;;;5071660;28;20041;-76
2022/05/23 07:34:47;;;;;;;6.55;4.00;;;18.00;99.90;;;;;;5072408;28;20052;-75
2022/05/23 07:37:14;;;;;;;6.85;3.90;;;18.10;99.90;;;;;;5072181;28;20044;-77
2022/05/23 07:39:41;;;;;;;8.80;4.07;;;18.30;99.90;;;;;;5054393;28;20146;-76
2022/05/23 07:42:08;;;;;;;9.38;4.78;;;18.50;99.90;;;;;;5054518;28;20147;-75
2022/05/23 07:44:35;;;;;;;6.88;4.50;;;18.70;99.90;;;;;;5054695;28;20059;-76
2022/05/23 07:47:03;;;;;;;7.68;4.20;;;18.80;99.90;;;;;;5072209;28;20106;-76
2022/05/23 07:49:29;;;;;;;8.70;4.50;;;18.90;99.90;;;;;;5072172;28;20353;-77
2022/05/23 07:51:56;;;;;;;8.15;4.55;;;18.90;99.90;;;;;;5054540;28;20045;-76
2022/05/23 08:02:39;;;;;;;6.10;4.05;;;19.50;99.90;;;;;;5075217;28;20464;-77
2022/05/23 08:05:05;;;;;;;6.47;4.22;;;19.70;99.90;;;;;;5057998;28;20131;-77
2022/05/23 08:07:31;;;;;;;11.07;4.60;;;20.00;99.90;;;;;;5075237;28;20341;-76
2022/05/23 08:10:00;;;;;;;7.95;4.35;;;20.40;99.90;;;;;;5075533;28;20040;-77
2022/05/23 08:12:30;;;;;;;7.20;4.43;;;20.90;99.90;;;;;;5055466;28;20127;-77
2022/05/23 08:15:19;;;;;;;8.00;4.75;;;21.10;99.90;;;;;;5074863;28;20178;-77
2022/05/23 08:17:45;;;;;;;7.95;3.97;;;21.10;99.90;;;;;;5054988;28;20103;-77
2022/05/23 08:20:11;;;;;;;7.20;4.28;;;21.20;99.90;;;;;;5055305;28;20049;-79
2022/05/23 08:22:39;;;;;;;8.07;4.45;;;21.30;99.90;;;;;;5052332;28;20049;-78
2022/05/23 08:25:09;;;;;;;6.43;4.03;;;21.50;99.90;;;;;;5050197;28;20136;-78
2022/05/23 08:27:35;;;;;;;8.73;4.40;;;21.70;99.90;;;;;;5054832;28;20084;-77
2022/05/23 08:30:03;;;;;;;8.57;4.10;;;22.00;99.90;;;;;;5054406;28;20087;-77
2022/05/23 08:32:29;;;;;;;9.00;3.60;;;22.10;99.90;;;;;;5055170;28;20045;-78
2022/05/23 08:34:54;;;;;;;5.53;3.88;;;22.30;99.90;;;;;;5037582;28;20501;-77
2022/05/23 08:37:20;;;;;;;8.23;4.47;;;22.50;99.90;;;;;;5054641;28;20174;-76
2022/05/23 08:39:49;;;;;;;8.48;4.00;;;22.70;99.90;;;;;;5054627;28;20045;-76
2022/05/23 08:42:47;;;;;;;8.77;4.43;;;22.80;99.90;;;;;;5059564;28;20545;-76
2022/05/23 08:45:20;;;;;;;5.57;3.55;;;22.90;99.90;;;;;;5072321;28;20060;-77
2022/05/23 08:48:02;;;;;;;7.25;4.22;;;23.10;99.90;;;;;;5086419;28;20051;-77
2022/05/23 08:51:10;;;;;;;7.65;3.92;;;23.30;99.90;;;;;;5094462;28;20044;-77
2022/05/23 08:54:01;;;;;;;7.68;4.20;;;23.60;99.70;;;;;;5013038;28;20065;-77
2022/05/23 08:56:32;;;;;;;5.57;3.90;;;23.60;98.20;;;;;;5094197;28;20074;-77
2022/05/23 08:59:01;;;;;;;7.25;3.90;;;23.40;98.30;;;;;;5076902;28;20118;-77
2022/05/23 09:01:48;;;;;;;8.43;4.80;;;23.30;98.50;;;;;;5094396;28;20127;-78
2022/05/23 09:04:42;;;;;;;9.65;4.90;;;23.20;98.40;;;;;;5094260;28;20039;-78
2022/05/23 09:07:13;;;;;;;7.10;4.38;;;23.40;99.30;;;;;;5094236;28;20044;-77
2022/05/23 09:09:39;;;;;;;10.63;4.35;;;23.70;99.50;;;;;;5093085;28;20055;-78
2022/05/23 09:12:10;;;;;;;6.65;4.20;;;24.00;98.30;;;;;;5093990;28;20102;-79
2022/05/23 09:14:37;;;;;;;8.93;4.93;;;24.10;96.90;;;;;;5094012;28;20032;-79
2022/05/23 09:17:09;;;;;;;9.27;4.60;;;24.00;96.20;;;;;;5078685;28;20078;-79
2022/05/23 09:19:40;;;;;;;9.32;4.22;;;24.00;96.80;;;;;;5073951;28;20331;-78
2022/05/23 09:22:32;;;;;;;7.15;3.88;;;24.10;96.20;;;;;;5056189;28;20087;-78
2022/05/23 09:25:00;;;;;;;7.45;4.28;;;24.20;95.60;;;;;;5073539;28;20047;-78
2022/05/23 09:27:36;;;;;;;8.85;4.65;;;24.30;95.60;;;;;;5073273;28;20056;-79
2022/05/23 09:30:04;;;;;;;10.07;4.95;;;24.40;95.40;;;;;;5073653;28;20431;-78
2022/05/23 09:32:51;;;;;;;7.65;4.60;;;24.40;94.90;;;;;;5073204;28;20045;-78
2022/05/23 09:35:19;;;;;;;8.57;5.18;;;24.50;94.00;;;;;;5056157;28;20377;-78
2022/05/23 09:38:17;;;;;;;6.45;4.38;;;24.40;94.20;;;;;;5073184;28;20048;-78
2022/05/23 09:40:43;;;;;;;7.20;4.43;;;24.30;94.30;;;;;;5073161;28;20056;-77
2022/05/23 09:49:10;;;;;;;5.20;4.00;;;24.30;94.80;;;;;;5073320;28;20056;-77
2022/05/23 09:51:54;;;;;;;8.95;4.68;;;24.10;92.70;;;;;;5073177;28;20048;-79
2022/05/23 09:54:38;;;;;;;8.35;4.20;;;24.00;94.40;;;;;;5055663;28;20103;-79
2022/05/23 09:57:27;;;;;;;6.32;4.05;;;24.10;93.80;;;;;;5055399;28;20119;-78
2022/05/23 09:59:58;;;;;;;;;;;24.30;93.70;;;;;;5055905;28;20454;-80
2022/05/23 10:02:30;;;;;;;8.55;3.75;;;24.60;94.20;;;;;;5055379;28;19916;-78
2022/05/23 10:04:56;;;;;;;4.53;3.63;;;24.80;92.90;;;;;;5072696;28;20055;-77
2022/05/23 10:07:37;;;;;;;5.95;4.07;;;24.90;91.90;;;;;;5055100;28;20415;-78
2022/05/23 10:10:06;;;;;;;8.57;3.63;;;24.90;91.30;;;;;;5055406;28;20044;-78
2022/05/23 10:12:33;;;;;;;6.55;3.65;;;24.90;91.90;;;;;;5072637;28;20098;-79
2022/05/23 10:15:23;;;;;;;8.30;4.10;;;25.00;91.50;;;;;;5055458;28;20052;-79
2022/05/23 10:18:05;;;;;;;7.05;4.13;;;25.00;90.60;;;;;;5050903;28;20048;-78
2022/05/23 10:20:37;;;;;;;5.97;3.80;;;24.70;90.60;;;;;;5055162;28;20057;-78
2022/05/23 10:23:26;;;;;;;5.10;3.70;;;24.50;91.50;;;;;;5072470;28;20048;-79
2022/05/23 10:26:19;;;;;;;5.00;4.03;;;24.70;91.50;;;;;;5072142;28;20052;-80
2022/05/23 10:28:52;;;;;;;8.50;3.95;;;24.80;91.20;;;;;;5054811;28;20178;-79
2022/05/23 10:31:54;;;;;;;7.25;3.53;;;24.70;90.40;;;;;;5055143;28;20055;-77
2022/05/23 10:34:37;;;;;;;5.80;3.65;;;24.70;90.90;;;;;;5039878;28;20041;-80
2022/05/23 10:37:07;;;;;;;5.25;3.13;;;24.60;88.70;;;;;;5054275;28;20513;-78
2022/05/23 10:42:32;;;;;;;7.20;3.85;;;24.40;90.10;;;;;;5054523;28;20067;-78
2022/05/23 10:45:37;;;;;;;4.25;3.20;;;24.50;90.20;;;;;;5054617;28;20094;-77
2022/05/23 10:48:16;;;;;;;5.03;3.15;;;24.80;90.30;;;;;;5071235;28;20110;-78
2022/05/23 10:50:45;;;;;;;5.20;2.92;;;25.20;91.20;;;;;;5072183;28;20072;-80
2022/05/23 10:53:26;;;;;;;6.30;3.00;;;25.70;89.20;;;;;;5053997;28;20032;-81
2022/05/23 10:56:06;;;;;;;6.07;2.80;;;26.00;84.80;;;;;;5071492;28;20044;-80
2022/05/23 10:58:51;;;;;;;6.60;3.08;;;26.10;83.00;;;;;;5054469;28;20442;-79
2022/05/23 11:01:24;;;;;;;6.75;2.58;;;26.20;81.30;;;;;;5071800;28;20097;-78
2022/05/23 11:03:53;;;;;;;6.57;2.92;;;26.20;78.00;;;;;;5071602;28;20044;-77
2022/05/23 11:06:53;;;;;;;4.97;2.67;;;26.20;77.20;;;;;;5054549;28;20036;-79
2022/05/23 11:09:31;;;;;;;4.57;2.42;;;26.10;78.60;;;;;;5054313;28;20040;-78
2022/05/23 11:12:14;;;;;;;7.43;2.72;;;26.00;76.70;;;;;;5071657;28;20123;-78
2022/05/23 11:15:10;;;;;;;7.82;3.05;;;26.00;78.80;;;;;;5054371;28;20110;-78
2022/05/23 11:18:05;;;;;;;4.25;3.05;;;25.90;78.90;;;;;;5071731;28;20059;-78
2022/05/23 11:20:37;;;;;;;6.10;3.13;;;25.80;76.80;;;;;;5071909;28;20040;-77
2022/05/23 11:23:08;;;;;;;6.55;2.90;;;25.70;78.10;;;;;;5054134;28;20052;-78
2022/05/23 11:25:44;;;;;;;5.03;2.47;;;25.60;78.20;;;;;;5072212;28;20127;-78
2022/05/23 11:34:24;;;;;;;5.30;2.50;;;25.00;75.50;;;;;;5074329;28;20087;-79
2022/05/23 11:39:56;;;;;;;3.33;1.70;;;24.60;76.00;;;;;;5058034;28;20144;-77
2022/05/23 11:42:27;;;;;;;3.65;2.00;;;24.40;76.40;;;;;;5058536;28;20040;-81
2022/05/23 11:45:56;;;;;;;5.00;1.73;;;24.30;76.80;;;;;;5075959;28;20050;-76
2022/05/23 11:47:53;;;;;;;6.60;2.03;;;24.20;76.00;;;;;;5057925;28;20157;-79
2022/05/23 11:50:25;;;;;;;3.50;1.73;;;24.10;76.20;;;;;;5075548;28;20052;-78
2022/05/23 11:53:18;;;;;;;4.25;2.00;;;24.10;77.10;;;;;;5075598;28;20106;-79
2022/05/23 11:55:50;;;;;;;4.65;2.08;;;24.10;77.20;;;;;;5057929;28;20628;-78
2022/05/23 11:58:36;;;;;;;7.07;2.22;;;24.10;78.70;;;;;;5058047;28;20037;-77
2022/05/23 12:01:11;;;;;;;3.45;1.90;;;24.10;76.60;;;;;;5058109;28;20064;-78
2022/05/23 12:03:51;;;;;;;4.22;2.03;;;24.00;78.00;;;;;;5075413;28;20331;-77
2022/05/23 12:06:23;;;;;;;6.53;2.22;;;24.00;76.90;;;;;;5057954;28;20075;-79
2022/05/23 12:08:58;;;;;;;4.65;2.47;;;23.90;77.30;;;;;;5075009;28;20058;-80
2022/05/23 12:11:32;;;;;;;4.90;2.03;;;23.80;77.50;;;;;;5057823;28;20040;-79
2022/05/23 12:14:33;;;;;;;4.80;2.25;;;23.80;78.90;;;;;;5057758;28;20104;-78
2022/05/23 12:16:58;;;;;;;5.00;2.17;;;23.70;79.90;;;;;;5001546;28;20096;-79
2022/05/23 12:19:27;;;;;;;8.88;2.50;;;23.60;79.50;;;;;;5072014;28;20080;-79
2022/05/23 12:22:14;;;;;;;3.33;2.00;;;23.60;79.90;;;;;;5072329;28;20037;-78
2022/05/23 12:25:00;;;;;;;2.80;1.77;;;23.60;81.90;;;;;;5043049;28;20503;-78
2022/05/23 12:27:37;;;;;;;5.50;1.90;;;23.40;83.00;;;;;;5057048;28;20052;-79
2022/05/23 12:30:21;;;;;;;10.27;2.33;;;23.30;81.90;;;;;;5074903;28;20327;-79
2022/05/23 12:33:04;;;;;;;5.10;2.70;;;23.10;85.20;;;;;;5057256;28;20067;-78
2022/05/23 12:35:29;;;;;;;6.65;2.60;;;22.90;87.00;;;;;;5073092;28;20068;-78
2022/05/23 12:38:31;;;;;;;5.47;2.47;;;22.60;88.40;;;;;;5056906;28;20145;-80
2022/05/23 12:41:28;;;;;;;7.72;3.00;;;22.30;90.80;;;;;;5056594;28;20133;-80
2022/05/23 12:44:21;;;;;;;6.53;3.63;;;22.00;92.50;;;;;;5073710;28;20567;-79
2022/05/23 12:47:08;;;;;;;7.43;4.85;;;21.80;94.10;;;;;;5074691;28;20086;-79
2022/05/23 12:49:58;;;;;;;7.13;3.95;;;21.70;97.20;;;;;;5056991;28;20123;-78
2022/05/23 12:52:28;;;;;;;6.68;5.10;;;21.50;99.90;;;;;;5074444;28;20055;-79
2022/05/23 12:55:24;;;;;;;8.82;5.47;;;21.50;99.90;;;;;;5056964;28;20438;-77
2022/05/23 12:58:01;;;;;;;6.15;5.25;;;21.40;99.90;;;;;;5074407;28;20044;-79
2022/05/23 13:00:38;;;;;;;7.00;5.05;;;21.20;99.90;;;;;;5074180;28;20335;-77
2022/05/23 13:03:42;;;;;;;7.00;5.80;;;21.10;99.90;;;;;;5074221;28;20137;-77
2022/05/23 13:06:22;;;;;;;7.68;4.68;;;21.10;99.90;;;;;;5073863;28;20127;-77
2022/05/23 13:08:48;;;;;;;7.88;5.20;;;21.10;99.90;;;;;;5073648;28;20067;-78
2022/05/23 13:11:41;;;;;;;8.65;4.55;;;21.20;99.90;;;;;;5056440;28;20095;-78
2022/05/23 13:14:07;;;;;;;14.50;5.35;;;21.30;99.90;;;;;;5069727;28;20416;-77
2022/05/23 13:16:37;;;;;;;9.70;5.50;;;21.40;99.90;;;;;;5070015;28;20090;-78
2022/05/23 13:22:06;;;;;;;9.73;6.25;;;21.60;99.90;;;;;;5073355;28;20128;-77
2022/05/23 13:24:49;;;;;;;9.30;5.55;;;21.90;99.90;;;;;;5057433;28;20127;-77
2022/05/23 13:27:42;;;;;;;7.00;4.43;;;22.00;99.90;;;;;;5072106;28;20083;-77
2022/05/23 13:30:20;;;;;;;7.28;4.95;;;22.20;99.90;;;;;;5046776;28;20286;-78
2022/05/23 13:33:04;;;;;;;6.20;5.00;;;22.30;99.90;;;;;;5055747;28;20478;-79
2022/05/23 13:35:32;;;;;;;7.75;5.45;;;22.40;99.90;;;;;;5055630;28;20070;-76
2022/05/23 13:38:12;;;;;;;9.00;5.50;;;22.40;99.90;;;;;;5055007;28;20114;-77
2022/05/23 13:40:42;;;;;;;9.63;5.35;;;22.40;99.90;;;;;;5036318;28;20442;-76
2022/05/23 13:43:19;;;;;;;10.70;6.20;;;22.50;99.90;;;;;;5038767;28;20051;-77
2022/05/23 13:46:08;;;;;;;8.15;5.43;;;22.50;99.90;;;;;;5055398;28;20067;-77
2022/05/23 13:48:43;;;;;;;7.20;5.07;;;22.50;99.90;;;;;;5022875;28;20110;-76
2022/05/23 13:51:23;;;;;;;7.22;5.30;;;22.50;99.90;;;;;;5054649;28;20037;-77
2022/05/23 13:53:56;;;;;;;6.90;5.00;;;22.60;99.90;;;;;;5036856;28;20053;-77
2022/05/23 13:56:22;;;;;;;7.78;5.43;;;22.70;99.90;;;;;;5036457;28;20047;-77
2022/05/23 13:58:53;;;;;;;6.85;5.70;;;22.70;99.90;;;;;;5038030;28;20458;-79
2022/05/23 14:01:22;;;;;;;6.78;4.78;;;22.70;99.90;;;;;;5036908;28;20082;-78
2022/05/23 14:04:04;;;;;;;10.18;5.65;;;22.70;99.90;;;;;;5053697;28;20120;-76
2022/05/23 14:06:41;;;;;;;8.85;5.88;;;22.80;99.90;;;;;;5038954;28;20052;-78
2022/05/23 14:09:07;;;;;;;6.55;5.55;;;22.70;99.90;;;;;;5055457;28;20513;-77
2022/05/23 14:11:39;;;;;;;8.32;5.53;;;22.60;99.90;;;;;;5053616;28;20087;-77
2022/05/23 14:14:29;;;;;;;8.30;6.15;;;22.50;99.90;;;;;;5053452;28;20040;-77
2022/05/23 14:16:54;;;;;;;;;;;22.50;99.90;;;;;;5049578;28;20041;-77